Aeroporto :
LOGIN :

Iscrizione | Disclaimer

   EN    FR    IT 

 










Sommario :    VFR   VFR Marginale   IFR   IFR Intensivo   IFR Molto Intensivo
Visibilità : 
Base nubi : 
>= 8 km
>= 3000ft
5 / 8 km
1000 / 3000 ft
1500m / 5 km
500 / 1000 ft
800 / 1500m
200 / 500 ft
< 800m
< 200 ft
Simboli :   Temporali  Nebbia  Neve Forte  Precipitazioni Forti  Vento > 20 kt
SIGMETs :   Varie  Temporali  Ghiacco  Turbolenza  Onda orograficha  Ceneri Vulcaniche






- Altitudine del aeroporto : 821 ft
- Codice IATA : LYS


LFLL - Lyon St Exupéry / Satolas

ULTIMO METAR :
  • 180800Z 24003KT 210V270 8000 MIFG FEW040 02/01 Q1030 NOSIG

METARs OBSOLETI :
  • 180730Z 27003KT 8000 R17R/1000U MIFG FEW040 01/00 Q1029 NOSIG
  • 180700Z 12004KT 9999 FEW040 02/01 Q1029 NOSIG
  • 180630Z 16003KT 9999 FEW030 02/02 Q1029 NOSIG
  • 180600Z 12004KT 080V140 9999 FEW030 02/01 Q1029 NOSIG
  • 180530Z 09002KT 9999 FEW030 02/02 Q1029 NOSIG

TAF AMD TAF LFLL
Valido dal 18 a 06 ore il 19 a 12 ore UTC


180626Z 1806/1912 36002KT 9999 SCT030
PROB40
TEMPO 1806/1808 0400 BCFG
BECMG 1810/1812 36007KT
BECMG 1813/1815 CAVOK
BECMG 1901/1903 BKN009
BECMG 1908/1910 36017KT
BECMG 1910/1912 BKN014



MetMap, La meteo Aeronautica in un colpo d'occhio ! - Copyright ORBIFLY Dicembre 2007 - Disclaimer

ORBIFLY MET'MAP TEAM :

Programmazione e sviluppo : Alexandra Zaïnal
Concezione : Baudouin d'Aumeries
Aiuto per la programmazione : Marc-Olivier Méhu
Supporto tecnico e logistico : Manuel Goepfert
Aiuto per la traduzione : Arnaldo La Scala

Contatto : metmap@orbifly.com




FONTI E CREDITI :

   NOAA